Flight Track Log - Related Links

Times and Time Zones

All times are in EDT time to prevent confusion due to time zone crossing. See the N342ER flight status page for this flight to view local times or setup timezone preferences in your user account.

Time Position Orientation Groundspeed Altitude Reporting Facility
EDT Latitude Longitude Course Direction KTS MPH feet Rate Location/Type
Tue 05:47:50 PM 34.4439 -86.9094 144° Southeast 154 177 8,000  Level Memphis Center
Tue 05:48:50 PM 34.4078 -86.8781 144° Southeast 154 177 9,400 1,258 Climbing Memphis Center
Tue 05:49:54 PM 34.3736 -86.8500 146° Southeast 152 175 10,600 1,392 Climbing Atlanta Center
Tue 05:50:55 PM 34.3369 -86.8186 145° Southeast 159 183 12,300 1,550 Climbing Atlanta Center
Tue 05:51:54 PM 34.3019 -86.7897 146° Southeast 159 183 13,700 1,261 Climbing Atlanta Center
Tue 05:52:54 PM 34.2653 -86.7583 145° Southeast 159 183 14,800 650 Climbing Atlanta Center
Tue 05:53:54 PM 34.2200 -86.7217 146° Southeast 171 197 15,000 100 Climbing Atlanta Center
Tue 05:54:54 PM 34.1708 -86.6825 147° Southeast 197 227 15,000  Level Atlanta Center
Tue 05:55:54 PM 34.1217 -86.6408 145° Southeast 212 244 15,000  Level Atlanta Center
Tue 05:56:54 PM 34.0703 -86.6017 148° Southeast 212 244 15,000  Level Atlanta Center
Tue 05:57:54 PM 34.0189 -86.5575 145° Southeast 218 251 15,000  Level Atlanta Center
Tue 05:58:54 PM 33.9675 -86.5161 146° Southeast 223 257 15,000  Level Atlanta Center
Tue 05:59:54 PM 33.9164 -86.4719 144° Southeast 223 257 15,000  Level Atlanta Center
Tue 06:00:54 PM 33.8669 -86.4331 147° Southeast 223 257 15,000  Level Atlanta Center
Tue 06:01:54 PM 33.8156 -86.3917 146° Southeast 228 262 15,000  Level Atlanta Center
Tue 06:02:54 PM 33.7642 -86.3503 146° Southeast 228 262 15,000  Level Atlanta Center
Tue 06:03:54 PM 33.7108 -86.3089 147° Southeast 228 262 15,000  Level Atlanta Center
Tue 06:04:54 PM 33.6614 -86.2650 144° Southeast 228 262 15,000  Level Atlanta Center
Tue 06:05:54 PM 33.6122 -86.2189 142° Southeast 228 262 15,000  Level Atlanta Center
Tue 06:06:54 PM 33.5608 -86.1653 139° Southeast 228 262 15,000  Level Atlanta Center
Tue 06:07:54 PM 33.5158 -86.1169 138° Southeast 223 257 15,000  Level Atlanta Center
Tue 06:08:54 PM 33.4644 -86.0758 146° Southeast 223 257 15,000 -300 Level Atlanta Center
Tue 06:09:54 PM 33.4108 -86.0322 146° Southeast 223 257 14,400 -550 Descending Atlanta Center
Tue 06:10:54 PM 33.3550 -85.9936 150° Southeast 230 265 13,900 -600 Descending Atlanta Center
Tue 06:11:54 PM 33.2994 -85.9525 148° Southeast 230 265 13,200 -1,100 Descending Atlanta Center
Tue 06:12:54 PM 33.2436 -85.9092 147° Southeast 236 272 11,700 -1,650 Descending Atlanta Center
Tue 06:13:54 PM 33.1878 -85.8683 149° Southeast 236 272 9,900 -1,800 Descending Atlanta Center
Tue 06:14:54 PM 33.1342 -85.8275 147° Southeast 236 272 8,100 -1,600 Descending Atlanta Center
Tue 06:15:54 PM 33.0889 -85.7942 148° Southeast 225 259 6,700 -1,200 Descending Atlanta Center
Tue 06:16:54 PM 33.0372 -85.7536 147° Southeast 225 259 5,700 -850 Descending Atlanta Center
Tue 06:17:54 PM 32.9875 -85.7156 147° Southeast 225 259 5,000 -350 Descending Atlanta Center
Tue 06:18:54 PM 32.9381 -85.6797 149° Southeast 219 252 5,000 -50 Level Atlanta Center
Tue 06:19:54 PM 32.8906 -85.6442 148° Southeast 206 237 4,900 -400 Descending Atlanta Center
Tue 06:20:54 PM 32.8386 -85.6064 149° Southeast 206 237 4,200 -595 Descending Atlanta Center
Tue 06:21:55 PM 32.7869 -85.5658 147° Southeast 206 237 3,700 -500 Descending Atlanta Center
Tue 06:22:54 PM 32.7353 -85.5278 148° Southeast 206 237 3,200 -508 Descending Atlanta Center
Tue 06:27:00 PM 32.6877 -85.4782 148° Southeast  Level FlightAware Approximate
Tue 06:34:00 PM 32.6151 -85.4340 320° Northwest  Level Estimated
Tue 06:35:00 PM 32.6151 -85.4340 320° Northwest  Level Estimated
Tue 06:36:00 PM 32.6151 -85.4340 320° Northwest  Level Estimated

Login

Don't have an account? Register now (free) for customized features, flight alerts, and more!